sensor_id;sensor_type;location;lat;lon;timestamp;P1;durP1;ratioP1;P2;durP2;ratioP2
15950;SDS011;8074;48.112;11.570;2022-11-20T00:02:18;4.03;;;2.57;;
15950;SDS011;8074;48.112;11.570;2022-11-20T00:04:45;3.33;;;2.20;;
15950;SDS011;8074;48.112;11.570;2022-11-20T00:07:12;5.10;;;2.60;;
15950;SDS011;8074;48.112;11.570;2022-11-20T00:09:40;3.70;;;2.63;;
15950;SDS011;8074;48.112;11.570;2022-11-20T00:12:07;4.60;;;2.63;;
15950;SDS011;8074;48.112;11.570;2022-11-20T00:14:34;2.93;;;2.40;;
15950;SDS011;8074;48.112;11.570;2022-11-20T00:17:01;3.97;;;2.30;;
15950;SDS011;8074;48.112;11.570;2022-11-20T00:19:28;3.90;;;2.63;;
15950;SDS011;8074;48.112;11.570;2022-11-20T00:21:55;3.23;;;2.83;;
15950;SDS011;8074;48.112;11.570;2022-11-20T00:24:22;3.23;;;2.60;;
15950;SDS011;8074;48.112;11.570;2022-11-20T00:26:50;3.30;;;2.60;;
15950;SDS011;8074;48.112;11.570;2022-11-20T00:29:17;3.43;;;2.73;;
15950;SDS011;8074;48.112;11.570;2022-11-20T00:31:44;3.33;;;2.40;;
15950;SDS011;8074;48.112;11.570;2022-11-20T00:34:11;3.53;;;2.60;;
15950;SDS011;8074;48.112;11.570;2022-11-20T00:36:38;4.63;;;2.60;;
15950;SDS011;8074;48.112;11.570;2022-11-20T00:39:05;3.63;;;2.73;;
15950;SDS011;8074;48.112;11.570;2022-11-20T00:41:32;2.77;;;2.57;;
15950;SDS011;8074;48.112;11.570;2022-11-20T00:44:00;4.37;;;3.10;;
15950;SDS011;8074;48.112;11.570;2022-11-20T00:46:27;3.53;;;2.50;;
15950;SDS011;8074;48.112;11.570;2022-11-20T00:48:54;3.27;;;2.70;;
15950;SDS011;8074;48.112;11.570;2022-11-20T00:51:22;4.93;;;2.43;;
15950;SDS011;8074;48.112;11.570;2022-11-20T00:53:50;3.10;;;2.70;;
15950;SDS011;8074;48.112;11.570;2022-11-20T00:56:18;3.13;;;2.67;;
15950;SDS011;8074;48.112;11.570;2022-11-20T00:58:46;2.83;;;2.53;;
15950;SDS011;8074;48.112;11.570;2022-11-20T01:01:17;3.97;;;2.57;;
15950;SDS011;8074;48.112;11.570;2022-11-20T01:03:46;4.07;;;3.03;;
15950;SDS011;8074;48.112;11.570;2022-11-20T01:06:15;2.80;;;2.60;;
15950;SDS011;8074;48.112;11.570;2022-11-20T01:08:44;2.63;;;2.43;;
15950;SDS011;8074;48.112;11.570;2022-11-20T01:11:12;4.00;;;2.60;;
15950;SDS011;8074;48.112;11.570;2022-11-20T01:13:40;3.43;;;2.97;;
15950;SDS011;8074;48.112;11.570;2022-11-20T01:16:08;3.53;;;2.90;;
15950;SDS011;8074;48.112;11.570;2022-11-20T01:18:39;3.33;;;2.80;;
15950;SDS011;8074;48.112;11.570;2022-11-20T01:21:07;4.97;;;2.77;;
15950;SDS011;8074;48.112;11.570;2022-11-20T01:23:37;2.93;;;2.60;;
15950;SDS011;8074;48.112;11.570;2022-11-20T01:26:06;3.40;;;2.43;;
15950;SDS011;8074;48.112;11.570;2022-11-20T01:28:34;3.50;;;2.60;;
15950;SDS011;8074;48.112;11.570;2022-11-20T01:31:02;6.33;;;2.67;;
15950;SDS011;8074;48.112;11.570;2022-11-20T01:33:39;2.47;;;2.27;;
15950;SDS011;8074;48.112;11.570;2022-11-20T01:36:07;2.47;;;2.20;;
15950;SDS011;8074;48.112;11.570;2022-11-20T01:38:35;2.93;;;2.50;;
15950;SDS011;8074;48.112;11.570;2022-11-20T01:41:02;4.80;;;2.43;;
15950;SDS011;8074;48.112;11.570;2022-11-20T01:43:29;2.33;;;2.13;;
15950;SDS011;8074;48.112;11.570;2022-11-20T01:46:00;3.20;;;2.60;;
15950;SDS011;8074;48.112;11.570;2022-11-20T01:48:30;2.87;;;2.40;;
15950;SDS011;8074;48.112;11.570;2022-11-20T01:51:04;3.47;;;2.30;;
15950;SDS011;8074;48.112;11.570;2022-11-20T01:53:37;3.87;;;2.57;;
15950;SDS011;8074;48.112;11.570;2022-11-20T01:56:05;2.53;;;2.30;;
15950;SDS011;8074;48.112;11.570;2022-11-20T01:58:37;2.90;;;2.30;;
15950;SDS011;8074;48.112;11.570;2022-11-20T02:01:08;3.93;;;2.60;;
15950;SDS011;8074;48.112;11.570;2022-11-20T02:03:35;4.20;;;2.43;;
15950;SDS011;8074;48.112;11.570;2022-11-20T02:06:06;3.83;;;2.70;;
15950;SDS011;8074;48.112;11.570;2022-11-20T02:08:39;5.13;;;4.47;;
15950;SDS011;8074;48.112;11.570;2022-11-20T02:11:06;4.07;;;2.50;;
15950;SDS011;8074;48.112;11.570;2022-11-20T02:13:33;4.37;;;2.90;;
15950;SDS011;8074;48.112;11.570;2022-11-20T02:16:08;2.70;;;2.50;;
15950;SDS011;8074;48.112;11.570;2022-11-20T02:18:47;3.37;;;2.57;;
15950;SDS011;8074;48.112;11.570;2022-11-20T02:21:19;3.43;;;2.70;;
15950;SDS011;8074;48.112;11.570;2022-11-20T02:24:01;3.47;;;2.77;;
15950;SDS011;8074;48.112;11.570;2022-11-20T02:26:31;3.17;;;2.50;;
15950;SDS011;8074;48.112;11.570;2022-11-20T02:28:59;2.97;;;2.47;;
15950;SDS011;8074;48.112;11.570;2022-11-20T02:31:27;3.40;;;2.83;;
15950;SDS011;8074;48.112;11.570;2022-11-20T02:33:55;3.27;;;2.93;;
15950;SDS011;8074;48.112;11.570;2022-11-20T02:36:23;3.40;;;2.97;;
15950;SDS011;8074;48.112;11.570;2022-11-20T02:38:52;3.37;;;3.00;;
15950;SDS011;8074;48.112;11.570;2022-11-20T02:41:21;3.20;;;2.90;;
15950;SDS011;8074;48.112;11.570;2022-11-20T02:43:56;3.83;;;2.57;;
15950;SDS011;8074;48.112;11.570;2022-11-20T02:46:23;4.93;;;2.90;;
15950;SDS011;8074;48.112;11.570;2022-11-20T02:48:50;3.17;;;2.87;;
15950;SDS011;8074;48.112;11.570;2022-11-20T02:51:17;3.63;;;3.10;;
15950;SDS011;8074;48.112;11.570;2022-11-20T02:53:44;3.60;;;3.13;;
15950;SDS011;8074;48.112;11.570;2022-11-20T02:56:11;6.60;;;2.80;;
15950;SDS011;8074;48.112;11.570;2022-11-20T02:58:39;3.70;;;2.77;;
15950;SDS011;8074;48.112;11.570;2022-11-20T03:01:07;3.10;;;2.80;;
15950;SDS011;8074;48.112;11.570;2022-11-20T03:03:34;3.00;;;2.70;;
15950;SDS011;8074;48.112;11.570;2022-11-20T03:06:01;4.43;;;2.90;;
15950;SDS011;8074;48.112;11.570;2022-11-20T03:08:29;3.20;;;2.60;;
15950;SDS011;8074;48.112;11.570;2022-11-20T03:10:56;3.30;;;2.80;;
15950;SDS011;8074;48.112;11.570;2022-11-20T03:13:22;4.60;;;3.20;;
15950;SDS011;8074;48.112;11.570;2022-11-20T03:15:52;3.57;;;3.00;;
15950;SDS011;8074;48.112;11.570;2022-11-20T03:18:19;3.87;;;3.00;;
15950;SDS011;8074;48.112;11.570;2022-11-20T03:20:46;4.93;;;3.07;;
15950;SDS011;8074;48.112;11.570;2022-11-20T03:23:13;3.63;;;3.07;;
15950;SDS011;8074;48.112;11.570;2022-11-20T03:25:40;3.30;;;2.97;;
15950;SDS011;8074;48.112;11.570;2022-11-20T03:28:07;3.80;;;3.03;;
15950;SDS011;8074;48.112;11.570;2022-11-20T03:30:34;3.20;;;2.80;;
15950;SDS011;8074;48.112;11.570;2022-11-20T03:33:02;3.23;;;2.93;;
15950;SDS011;8074;48.112;11.570;2022-11-20T03:35:29;4.13;;;2.97;;
15950;SDS011;8074;48.112;11.570;2022-11-20T03:37:57;3.30;;;3.00;;
15950;SDS011;8074;48.112;11.570;2022-11-20T03:40:24;4.03;;;3.37;;
15950;SDS011;8074;48.112;11.570;2022-11-20T03:42:51;4.10;;;3.17;;
15950;SDS011;8074;48.112;11.570;2022-11-20T03:45:18;3.90;;;3.17;;
15950;SDS011;8074;48.112;11.570;2022-11-20T03:47:45;3.90;;;3.23;;
15950;SDS011;8074;48.112;11.570;2022-11-20T03:50:14;3.30;;;3.00;;
15950;SDS011;8074;48.112;11.570;2022-11-20T03:52:41;4.10;;;3.20;;
15950;SDS011;8074;48.112;11.570;2022-11-20T03:55:08;3.97;;;3.10;;
15950;SDS011;8074;48.112;11.570;2022-11-20T03:57:35;3.63;;;2.80;;
15950;SDS011;8074;48.112;11.570;2022-11-20T04:00:03;3.57;;;3.27;;
15950;SDS011;8074;48.112;11.570;2022-11-20T04:02:30;4.20;;;3.00;;
15950;SDS011;8074;48.112;11.570;2022-11-20T04:04:57;3.23;;;2.80;;
15950;SDS011;8074;48.112;11.570;2022-11-20T04:07:25;3.07;;;2.77;;
15950;SDS011;8074;48.112;11.570;2022-11-20T04:09:52;3.20;;;2.90;;
15950;SDS011;8074;48.112;11.570;2022-11-20T04:12:19;3.37;;;2.90;;
15950;SDS011;8074;48.112;11.570;2022-11-20T04:14:46;3.27;;;2.77;;
15950;SDS011;8074;48.112;11.570;2022-11-20T04:17:13;4.13;;;2.70;;
15950;SDS011;8074;48.112;11.570;2022-11-20T04:19:40;3.30;;;3.00;;
15950;SDS011;8074;48.112;11.570;2022-11-20T04:22:07;3.53;;;2.80;;
15950;SDS011;8074;48.112;11.570;2022-11-20T04:24:37;4.23;;;2.97;;
15950;SDS011;8074;48.112;11.570;2022-11-20T04:27:04;3.70;;;3.10;;
15950;SDS011;8074;48.112;11.570;2022-11-20T04:29:31;3.43;;;2.90;;
15950;SDS011;8074;48.112;11.570;2022-11-20T04:31:58;3.30;;;3.00;;
15950;SDS011;8074;48.112;11.570;2022-11-20T04:34:25;3.37;;;2.80;;
15950;SDS011;8074;48.112;11.570;2022-11-20T04:36:52;3.97;;;2.90;;
15950;SDS011;8074;48.112;11.570;2022-11-20T04:39:19;3.00;;;2.67;;
15950;SDS011;8074;48.112;11.570;2022-11-20T04:41:47;3.00;;;2.70;;
15950;SDS011;8074;48.112;11.570;2022-11-20T04:44:34;4.13;;;2.90;;
15950;SDS011;8074;48.112;11.570;2022-11-20T04:47:01;4.60;;;2.70;;
15950;SDS011;8074;48.112;11.570;2022-11-20T04:49:28;3.67;;;2.77;;
15950;SDS011;8074;48.112;11.570;2022-11-20T04:51:56;3.27;;;2.87;;
15950;SDS011;8074;48.112;11.570;2022-11-20T04:54:23;3.83;;;3.00;;
15950;SDS011;8074;48.112;11.570;2022-11-20T04:56:52;3.83;;;2.83;;
15950;SDS011;8074;48.112;11.570;2022-11-20T04:59:19;3.40;;;2.80;;
15950;SDS011;8074;48.112;11.570;2022-11-20T05:01:46;5.03;;;3.23;;
15950;SDS011;8074;48.112;11.570;2022-11-20T05:04:13;4.27;;;3.17;;
15950;SDS011;8074;48.112;11.570;2022-11-20T05:06:40;4.23;;;3.30;;
15950;SDS011;8074;48.112;11.570;2022-11-20T05:09:07;3.90;;;3.00;;
15950;SDS011;8074;48.112;11.570;2022-11-20T05:11:34;3.40;;;3.10;;
15950;SDS011;8074;48.112;11.570;2022-11-20T05:14:02;4.13;;;3.10;;
15950;SDS011;8074;48.112;11.570;2022-11-20T05:16:29;3.33;;;3.03;;
15950;SDS011;8074;48.112;11.570;2022-11-20T05:18:56;5.30;;;3.30;;
15950;SDS011;8074;48.112;11.570;2022-11-20T05:21:23;3.70;;;3.30;;
15950;SDS011;8074;48.112;11.570;2022-11-20T05:23:50;4.07;;;3.43;;
15950;SDS011;8074;48.112;11.570;2022-11-20T05:26:17;4.30;;;3.10;;
15950;SDS011;8074;48.112;11.570;2022-11-20T05:28:46;3.50;;;3.20;;
15950;SDS011;8074;48.112;11.570;2022-11-20T05:31:15;4.37;;;3.03;;
15950;SDS011;8074;48.112;11.570;2022-11-20T05:33:44;3.43;;;3.13;;
15950;SDS011;8074;48.112;11.570;2022-11-20T05:36:12;3.77;;;3.30;;
15950;SDS011;8074;48.112;11.570;2022-11-20T05:38:40;3.43;;;3.10;;
15950;SDS011;8074;48.112;11.570;2022-11-20T05:41:08;3.73;;;3.03;;
15950;SDS011;8074;48.112;11.570;2022-11-20T05:43:37;3.97;;;3.20;;
15950;SDS011;8074;48.112;11.570;2022-11-20T05:46:05;3.23;;;2.93;;
15950;SDS011;8074;48.112;11.570;2022-11-20T05:48:35;2.97;;;2.73;;
15950;SDS011;8074;48.112;11.570;2022-11-20T05:51:04;3.47;;;3.17;;
15950;SDS011;8074;48.112;11.570;2022-11-20T05:53:32;3.73;;;3.13;;
15950;SDS011;8074;48.112;11.570;2022-11-20T05:56:00;3.37;;;2.93;;
15950;SDS011;8074;48.112;11.570;2022-11-20T05:58:29;4.23;;;2.90;;
15950;SDS011;8074;48.112;11.570;2022-11-20T06:01:02;3.63;;;3.10;;
15950;SDS011;8074;48.112;11.570;2022-11-20T06:03:30;3.70;;;3.20;;
15950;SDS011;8074;48.112;11.570;2022-11-20T06:05:59;3.00;;;2.70;;
15950;SDS011;8074;48.112;11.570;2022-11-20T06:08:27;4.33;;;3.17;;
15950;SDS011;8074;48.112;11.570;2022-11-20T06:10:54;3.80;;;2.77;;
15950;SDS011;8074;48.112;11.570;2022-11-20T06:13:21;4.03;;;2.87;;
15950;SDS011;8074;48.112;11.570;2022-11-20T06:15:48;5.53;;;2.90;;
15950;SDS011;8074;48.112;11.570;2022-11-20T06:18:16;3.37;;;2.70;;
15950;SDS011;8074;48.112;11.570;2022-11-20T06:20:43;3.00;;;2.70;;
15950;SDS011;8074;48.112;11.570;2022-11-20T06:23:11;3.33;;;2.83;;
15950;SDS011;8074;48.112;11.570;2022-11-20T06:25:39;6.50;;;4.70;;
15950;SDS011;8074;48.112;11.570;2022-11-20T06:28:07;8.27;;;6.13;;
15950;SDS011;8074;48.112;11.570;2022-11-20T06:30:34;3.23;;;2.67;;
15950;SDS011;8074;48.112;11.570;2022-11-20T06:33:02;3.30;;;2.80;;
15950;SDS011;8074;48.112;11.570;2022-11-20T06:35:29;3.80;;;2.70;;
15950;SDS011;8074;48.112;11.570;2022-11-20T06:37:56;3.37;;;2.30;;
15950;SDS011;8074;48.112;11.570;2022-11-20T06:40:24;3.10;;;2.40;;
15950;SDS011;8074;48.112;11.570;2022-11-20T06:42:53;4.70;;;2.30;;
15950;SDS011;8074;48.112;11.570;2022-11-20T06:45:20;3.70;;;2.30;;
15950;SDS011;8074;48.112;11.570;2022-11-20T06:47:47;2.60;;;2.20;;
15950;SDS011;8074;48.112;11.570;2022-11-20T06:50:14;2.97;;;2.10;;
15950;SDS011;8074;48.112;11.570;2022-11-20T06:52:41;3.17;;;2.20;;
15950;SDS011;8074;48.112;11.570;2022-11-20T06:55:08;3.23;;;2.10;;
15950;SDS011;8074;48.112;11.570;2022-11-20T06:57:36;2.40;;;2.00;;
15950;SDS011;8074;48.112;11.570;2022-11-20T07:00:03;2.40;;;2.07;;
15950;SDS011;8074;48.112;11.570;2022-11-20T07:02:31;2.40;;;2.20;;
15950;SDS011;8074;48.112;11.570;2022-11-20T07:04:58;4.10;;;1.90;;
15950;SDS011;8074;48.112;11.570;2022-11-20T07:07:25;2.57;;;1.80;;
15950;SDS011;8074;48.112;11.570;2022-11-20T07:09:52;2.90;;;2.00;;
15950;SDS011;8074;48.112;11.570;2022-11-20T07:12:19;3.10;;;2.17;;
15950;SDS011;8074;48.112;11.570;2022-11-20T07:14:47;2.40;;;2.20;;
15950;SDS011;8074;48.112;11.570;2022-11-20T07:17:14;2.70;;;2.23;;
15950;SDS011;8074;48.112;11.570;2022-11-20T07:19:41;3.20;;;2.57;;
15950;SDS011;8074;48.112;11.570;2022-11-20T07:22:08;3.93;;;2.90;;
15950;SDS011;8074;48.112;11.570;2022-11-20T07:24:35;3.37;;;2.80;;
15950;SDS011;8074;48.112;11.570;2022-11-20T07:27:02;4.07;;;2.80;;
15950;SDS011;8074;48.112;11.570;2022-11-20T07:29:29;3.87;;;2.67;;
15950;SDS011;8074;48.112;11.570;2022-11-20T07:31:57;3.50;;;3.07;;
15950;SDS011;8074;48.112;11.570;2022-11-20T07:34:24;5.97;;;2.80;;
15950;SDS011;8074;48.112;11.570;2022-11-20T07:36:51;4.07;;;3.03;;
15950;SDS011;8074;48.112;11.570;2022-11-20T07:39:18;3.90;;;2.83;;
15950;SDS011;8074;48.112;11.570;2022-11-20T07:41:45;4.37;;;3.93;;
15950;SDS011;8074;48.112;11.570;2022-11-20T07:44:13;3.80;;;2.60;;
15950;SDS011;8074;48.112;11.570;2022-11-20T07:46:40;3.43;;;2.50;;
15950;SDS011;8074;48.112;11.570;2022-11-20T07:49:08;2.60;;;2.40;;
15950;SDS011;8074;48.112;11.570;2022-11-20T07:51:35;5.40;;;2.77;;
15950;SDS011;8074;48.112;11.570;2022-11-20T07:54:02;3.57;;;2.67;;
15950;SDS011;8074;48.112;11.570;2022-11-20T07:56:29;3.60;;;3.00;;
15950;SDS011;8074;48.112;11.570;2022-11-20T07:58:56;4.43;;;2.60;;
15950;SDS011;8074;48.112;11.570;2022-11-20T08:01:23;3.20;;;2.67;;
15950;SDS011;8074;48.112;11.570;2022-11-20T08:03:50;3.10;;;2.80;;
15950;SDS011;8074;48.112;11.570;2022-11-20T08:06:19;2.80;;;2.40;;
15950;SDS011;8074;48.112;11.570;2022-11-20T08:08:46;2.47;;;2.27;;
15950;SDS011;8074;48.112;11.570;2022-11-20T08:11:13;3.10;;;2.40;;
15950;SDS011;8074;48.112;11.570;2022-11-20T08:13:57;3.63;;;2.40;;
15950;SDS011;8074;48.112;11.570;2022-11-20T08:16:39;3.33;;;2.30;;
15950;SDS011;8074;48.112;11.570;2022-11-20T08:19:07;2.90;;;2.47;;
15950;SDS011;8074;48.112;11.570;2022-11-20T08:21:36;2.93;;;2.60;;
15950;SDS011;8074;48.112;11.570;2022-11-20T08:24:03;2.77;;;2.50;;
15950;SDS011;8074;48.112;11.570;2022-11-20T08:26:30;5.40;;;2.70;;
15950;SDS011;8074;48.112;11.570;2022-11-20T08:28:58;2.80;;;2.50;;
15950;SDS011;8074;48.112;11.570;2022-11-20T08:31:26;3.13;;;2.47;;
15950;SDS011;8074;48.112;11.570;2022-11-20T08:33:53;3.00;;;2.70;;
15950;SDS011;8074;48.112;11.570;2022-11-20T08:36:20;2.53;;;2.20;;
15950;SDS011;8074;48.112;11.570;2022-11-20T08:38:50;2.73;;;2.33;;
15950;SDS011;8074;48.112;11.570;2022-11-20T08:41:18;4.33;;;2.57;;
15950;SDS011;8074;48.112;11.570;2022-11-20T08:43:57;2.53;;;2.20;;
15950;SDS011;8074;48.112;11.570;2022-11-20T08:46:26;2.33;;;2.13;;
15950;SDS011;8074;48.112;11.570;2022-11-20T08:48:54;2.60;;;2.37;;
15950;SDS011;8074;48.112;11.570;2022-11-20T08:51:21;2.60;;;2.10;;
15950;SDS011;8074;48.112;11.570;2022-11-20T08:53:50;2.60;;;2.20;;
15950;SDS011;8074;48.112;11.570;2022-11-20T08:56:17;2.47;;;2.20;;
15950;SDS011;8074;48.112;11.570;2022-11-20T08:58:44;2.27;;;2.07;;
15950;SDS011;8074;48.112;11.570;2022-11-20T09:01:11;2.60;;;2.10;;
15950;SDS011;8074;48.112;11.570;2022-11-20T09:03:38;2.57;;;2.00;;
15950;SDS011;8074;48.112;11.570;2022-11-20T09:06:05;2.90;;;2.17;;
15950;SDS011;8074;48.112;11.570;2022-11-20T09:08:33;2.63;;;2.10;;
15950;SDS011;8074;48.112;11.570;2022-11-20T09:11:03;3.40;;;2.43;;
15950;SDS011;8074;48.112;11.570;2022-11-20T09:13:31;1.97;;;1.70;;
15950;SDS011;8074;48.112;11.570;2022-11-20T09:15:59;2.47;;;1.80;;
15950;SDS011;8074;48.112;11.570;2022-11-20T09:18:28;3.13;;;2.03;;
15950;SDS011;8074;48.112;11.570;2022-11-20T09:20:57;2.40;;;1.90;;
15950;SDS011;8074;48.112;11.570;2022-11-20T09:23:24;3.90;;;2.20;;
15950;SDS011;8074;48.112;11.570;2022-11-20T09:25:51;2.73;;;1.80;;
15950;SDS011;8074;48.112;11.570;2022-11-20T09:28:21;3.30;;;1.90;;
15950;SDS011;8074;48.112;11.570;2022-11-20T09:30:48;3.00;;;2.23;;
15950;SDS011;8074;48.112;11.570;2022-11-20T09:33:15;2.40;;;2.00;;
15950;SDS011;8074;48.112;11.570;2022-11-20T09:35:42;2.33;;;2.07;;
15950;SDS011;8074;48.112;11.570;2022-11-20T09:38:09;2.20;;;1.90;;
15950;SDS011;8074;48.112;11.570;2022-11-20T09:40:38;4.53;;;2.57;;
15950;SDS011;8074;48.112;11.570;2022-11-20T09:43:10;2.17;;;1.73;;
15950;SDS011;8074;48.112;11.570;2022-11-20T09:48:41;2.07;;;1.53;;
15950;SDS011;8074;48.112;11.570;2022-11-20T09:51:17;4.30;;;1.90;;
15950;SDS011;8074;48.112;11.570;2022-11-20T09:53:59;2.77;;;1.73;;
15950;SDS011;8074;48.112;11.570;2022-11-20T09:56:37;2.00;;;1.60;;
15950;SDS011;8074;48.112;11.570;2022-11-20T09:59:07;2.30;;;1.60;;
15950;SDS011;8074;48.112;11.570;2022-11-20T10:01:47;2.60;;;1.57;;
15950;SDS011;8074;48.112;11.570;2022-11-20T10:04:15;2.43;;;1.50;;
15950;SDS011;8074;48.112;11.570;2022-11-20T10:06:47;2.30;;;1.70;;
15950;SDS011;8074;48.112;11.570;2022-11-20T10:09:21;2.70;;;1.80;;
15950;SDS011;8074;48.112;11.570;2022-11-20T10:11:57;2.83;;;1.50;;
15950;SDS011;8074;48.112;11.570;2022-11-20T10:14:38;1.50;;;1.40;;
15950;SDS011;8074;48.112;11.570;2022-11-20T10:17:22;2.47;;;1.97;;
15950;SDS011;8074;48.112;11.570;2022-11-20T10:20:05;2.30;;;1.70;;
15950;SDS011;8074;48.112;11.570;2022-11-20T10:22:44;1.60;;;1.50;;
15950;SDS011;8074;48.112;11.570;2022-11-20T10:25:22;1.73;;;1.50;;
15950;SDS011;8074;48.112;11.570;2022-11-20T10:28:05;1.80;;;1.50;;
15950;SDS011;8074;48.112;11.570;2022-11-20T10:30:42;1.97;;;1.67;;
15950;SDS011;8074;48.112;11.570;2022-11-20T10:33:15;1.93;;;1.40;;
15950;SDS011;8074;48.112;11.570;2022-11-20T10:35:47;2.10;;;1.50;;
15950;SDS011;8074;48.112;11.570;2022-11-20T10:38:19;1.47;;;1.37;;
15950;SDS011;8074;48.112;11.570;2022-11-20T10:40:51;1.77;;;1.60;;
15950;SDS011;8074;48.112;11.570;2022-11-20T10:43:41;1.57;;;1.47;;
15950;SDS011;8074;48.112;11.570;2022-11-20T10:46:10;1.53;;;1.40;;
15950;SDS011;8074;48.112;11.570;2022-11-20T10:48:43;3.63;;;1.40;;
15950;SDS011;8074;48.112;11.570;2022-11-20T10:51:13;1.83;;;1.43;;
15950;SDS011;8074;48.112;11.570;2022-11-20T10:53:51;1.73;;;1.43;;
15950;SDS011;8074;48.112;11.570;2022-11-20T10:56:24;1.53;;;1.43;;
15950;SDS011;8074;48.112;11.570;2022-11-20T10:59:12;1.87;;;1.40;;
15950;SDS011;8074;48.112;11.570;2022-11-20T11:01:52;1.67;;;1.20;;
15950;SDS011;8074;48.112;11.570;2022-11-20T11:04:26;2.00;;;1.40;;
15950;SDS011;8074;48.112;11.570;2022-11-20T11:07:04;3.97;;;1.60;;
15950;SDS011;8074;48.112;11.570;2022-11-20T11:09:37;2.60;;;1.70;;
15950;SDS011;8074;48.112;11.570;2022-11-20T11:12:08;3.10;;;1.60;;
15950;SDS011;8074;48.112;11.570;2022-11-20T11:14:45;2.47;;;1.83;;
15950;SDS011;8074;48.112;11.570;2022-11-20T11:17:22;3.47;;;1.80;;
15950;SDS011;8074;48.112;11.570;2022-11-20T11:20:00;2.83;;;1.60;;
15950;SDS011;8074;48.112;11.570;2022-11-20T11:22:30;3.67;;;1.83;;
15950;SDS011;8074;48.112;11.570;2022-11-20T11:24:58;3.20;;;1.70;;
15950;SDS011;8074;48.112;11.570;2022-11-20T11:27:26;1.90;;;1.60;;
15950;SDS011;8074;48.112;11.570;2022-11-20T11:30:01;2.47;;;1.40;;
15950;SDS011;8074;48.112;11.570;2022-11-20T11:32:39;2.53;;;1.80;;
15950;SDS011;8074;48.112;11.570;2022-11-20T11:35:18;2.10;;;1.53;;
15950;SDS011;8074;48.112;11.570;2022-11-20T11:37:49;3.03;;;1.67;;
15950;SDS011;8074;48.112;11.570;2022-11-20T11:40:23;1.50;;;1.40;;
15950;SDS011;8074;48.112;11.570;2022-11-20T11:42:56;1.90;;;1.50;;
15950;SDS011;8074;48.112;11.570;2022-11-20T11:45:25;6.37;;;2.90;;
15950;SDS011;8074;48.112;11.570;2022-11-20T11:47:52;1.60;;;1.50;;
15950;SDS011;8074;48.112;11.570;2022-11-20T11:50:24;2.20;;;1.50;;
15950;SDS011;8074;48.112;11.570;2022-11-20T11:53:05;2.77;;;1.80;;
15950;SDS011;8074;48.112;11.570;2022-11-20T11:55:36;2.70;;;1.50;;
15950;SDS011;8074;48.112;11.570;2022-11-20T11:58:11;1.97;;;1.47;;
15950;SDS011;8074;48.112;11.570;2022-11-20T12:00:45;1.83;;;1.50;;
15950;SDS011;8074;48.112;11.570;2022-11-20T12:03:21;4.73;;;2.00;;
15950;SDS011;8074;48.112;11.570;2022-11-20T12:05:55;1.70;;;1.60;;
15950;SDS011;8074;48.112;11.570;2022-11-20T12:08:26;2.87;;;2.10;;
15950;SDS011;8074;48.112;11.570;2022-11-20T12:10:59;4.03;;;1.67;;
15950;SDS011;8074;48.112;11.570;2022-11-20T12:13:37;5.07;;;1.63;;
15950;SDS011;8074;48.112;11.570;2022-11-20T12:16:11;2.03;;;1.60;;
15950;SDS011;8074;48.112;11.570;2022-11-20T12:18:40;1.67;;;1.57;;
15950;SDS011;8074;48.112;11.570;2022-11-20T12:21:19;2.03;;;1.60;;
15950;SDS011;8074;48.112;11.570;2022-11-20T12:23:56;2.13;;;1.73;;
15950;SDS011;8074;48.112;11.570;2022-11-20T12:26:41;1.77;;;1.50;;
15950;SDS011;8074;48.112;11.570;2022-11-20T12:29:19;2.23;;;1.63;;
15950;SDS011;8074;48.112;11.570;2022-11-20T12:32:00;2.10;;;1.67;;
15950;SDS011;8074;48.112;11.570;2022-11-20T12:34:45;2.10;;;1.90;;
15950;SDS011;8074;48.112;11.570;2022-11-20T12:37:24;2.10;;;1.90;;
15950;SDS011;8074;48.112;11.570;2022-11-20T12:40:00;1.97;;;1.70;;
15950;SDS011;8074;48.112;11.570;2022-11-20T12:42:41;2.30;;;1.87;;
15950;SDS011;8074;48.112;11.570;2022-11-20T12:45:50;2.47;;;1.80;;
15950;SDS011;8074;48.112;11.570;2022-11-20T12:48:34;2.77;;;1.97;;
15950;SDS011;8074;48.112;11.570;2022-11-20T12:51:12;2.03;;;1.67;;
15950;SDS011;8074;48.112;11.570;2022-11-20T12:53:53;1.90;;;1.70;;
15950;SDS011;8074;48.112;11.570;2022-11-20T12:56:33;1.70;;;1.60;;
15950;SDS011;8074;48.112;11.570;2022-11-20T12:59:21;2.17;;;1.70;;
15950;SDS011;8074;48.112;11.570;2022-11-20T13:01:59;4.17;;;1.90;;
15950;SDS011;8074;48.112;11.570;2022-11-20T13:04:42;2.03;;;1.83;;
15950;SDS011;8074;48.112;11.570;2022-11-20T13:07:16;3.27;;;1.90;;
15950;SDS011;8074;48.112;11.570;2022-11-20T13:09:48;2.03;;;1.63;;
15950;SDS011;8074;48.112;11.570;2022-11-20T13:12:17;2.00;;;1.80;;
15950;SDS011;8074;48.112;11.570;2022-11-20T13:14:52;2.13;;;1.80;;
15950;SDS011;8074;48.112;11.570;2022-11-20T13:17:28;2.40;;;2.10;;
15950;SDS011;8074;48.112;11.570;2022-11-20T13:20:02;3.40;;;2.00;;
15950;SDS011;8074;48.112;11.570;2022-11-20T13:22:42;2.20;;;2.00;;
15950;SDS011;8074;48.112;11.570;2022-11-20T13:25:21;2.50;;;2.13;;
15950;SDS011;8074;48.112;11.570;2022-11-20T13:27:49;2.40;;;1.97;;
15950;SDS011;8074;48.112;11.570;2022-11-20T13:30:17;2.63;;;2.23;;
15950;SDS011;8074;48.112;11.570;2022-11-20T13:32:49;2.20;;;2.00;;
15950;SDS011;8074;48.112;11.570;2022-11-20T13:35:26;2.73;;;2.20;;
15950;SDS011;8074;48.112;11.570;2022-11-20T13:38:04;3.83;;;2.30;;
15950;SDS011;8074;48.112;11.570;2022-11-20T13:40:35;3.73;;;2.20;;
15950;SDS011;8074;48.112;11.570;2022-11-20T13:43:16;2.50;;;2.27;;
15950;SDS011;8074;48.112;11.570;2022-11-20T13:45:54;2.73;;;2.40;;
15950;SDS011;8074;48.112;11.570;2022-11-20T13:48:24;2.47;;;2.00;;
15950;SDS011;8074;48.112;11.570;2022-11-20T13:50:56;2.77;;;2.20;;
15950;SDS011;8074;48.112;11.570;2022-11-20T13:53:36;3.90;;;2.30;;
15950;SDS011;8074;48.112;11.570;2022-11-20T13:56:27;2.63;;;2.10;;
15950;SDS011;8074;48.112;11.570;2022-11-20T13:59:02;3.17;;;2.20;;
15950;SDS011;8074;48.112;11.570;2022-11-20T14:01:37;2.83;;;1.73;;
15950;SDS011;8074;48.112;11.570;2022-11-20T14:04:06;2.50;;;2.00;;
15950;SDS011;8074;48.112;11.570;2022-11-20T14:06:34;2.10;;;1.90;;
15950;SDS011;8074;48.112;11.570;2022-11-20T14:09:10;2.40;;;1.90;;
15950;SDS011;8074;48.112;11.570;2022-11-20T14:11:45;2.37;;;1.90;;
15950;SDS011;8074;48.112;11.570;2022-11-20T14:14:13;2.93;;;2.10;;
15950;SDS011;8074;48.112;11.570;2022-11-20T14:16:44;2.47;;;1.90;;
15950;SDS011;8074;48.112;11.570;2022-11-20T14:19:22;2.63;;;2.03;;
15950;SDS011;8074;48.112;11.570;2022-11-20T14:21:53;1.90;;;1.70;;
15950;SDS011;8074;48.112;11.570;2022-11-20T14:24:21;7.17;;;5.33;;
15950;SDS011;8074;48.112;11.570;2022-11-20T14:26:51;2.57;;;2.20;;
15950;SDS011;8074;48.112;11.570;2022-11-20T14:29:19;2.33;;;2.10;;
15950;SDS011;8074;48.112;11.570;2022-11-20T14:31:50;3.00;;;2.40;;
15950;SDS011;8074;48.112;11.570;2022-11-20T14:34:22;2.10;;;1.90;;
15950;SDS011;8074;48.112;11.570;2022-11-20T14:36:57;2.23;;;1.80;;
15950;SDS011;8074;48.112;11.570;2022-11-20T14:39:28;2.00;;;1.50;;
15950;SDS011;8074;48.112;11.570;2022-11-20T14:41:59;2.00;;;1.70;;
15950;SDS011;8074;48.112;11.570;2022-11-20T14:44:27;4.10;;;2.00;;
15950;SDS011;8074;48.112;11.570;2022-11-20T14:46:57;2.20;;;2.00;;
15950;SDS011;8074;48.112;11.570;2022-11-20T14:49:26;2.10;;;1.90;;
15950;SDS011;8074;48.112;11.570;2022-11-20T14:51:58;3.67;;;1.50;;
15950;SDS011;8074;48.112;11.570;2022-11-20T14:54:26;1.77;;;1.50;;
15950;SDS011;8074;48.112;11.570;2022-11-20T14:56:54;1.60;;;1.20;;
15950;SDS011;8074;48.112;11.570;2022-11-20T14:59:27;1.50;;;1.40;;
15950;SDS011;8074;48.112;11.570;2022-11-20T15:01:55;2.47;;;1.30;;
15950;SDS011;8074;48.112;11.570;2022-11-20T15:04:25;2.00;;;1.10;;
15950;SDS011;8074;48.112;11.570;2022-11-20T15:06:53;1.27;;;1.03;;
15950;SDS011;8074;48.112;11.570;2022-11-20T15:09:22;1.70;;;1.30;;
15950;SDS011;8074;48.112;11.570;2022-11-20T15:11:53;2.93;;;1.27;;